sensor_id;sensor_type;location;lat;lon;timestamp;temperature;humidity
40738;DHT22;54759;48.094;-1.628;2023-04-03T00:02:10;20.30;66.80
40738;DHT22;54759;48.094;-1.628;2023-04-03T00:05:12;20.40;66.90
40738;DHT22;54759;48.094;-1.628;2023-04-03T00:08:13;20.20;67.20
40738;DHT22;54759;48.094;-1.628;2023-04-03T00:11:18;20.30;66.80
40738;DHT22;54759;48.094;-1.628;2023-04-03T00:14:20;20.50;66.80
40738;DHT22;54759;48.094;-1.628;2023-04-03T00:17:22;20.40;66.80
40738;DHT22;54759;48.094;-1.628;2023-04-03T00:20:23;20.50;67.00
40738;DHT22;54759;48.094;-1.628;2023-04-03T00:23:25;20.40;66.90
40738;DHT22;54759;48.094;-1.628;2023-04-03T00:26:27;20.40;67.80
40738;DHT22;54759;48.094;-1.628;2023-04-03T00:29:31;20.30;67.20
40738;DHT22;54759;48.094;-1.628;2023-04-03T00:32:33;20.40;67.40
40738;DHT22;54759;48.094;-1.628;2023-04-03T00:35:34;20.30;67.30
40738;DHT22;54759;48.094;-1.628;2023-04-03T00:38:39;20.20;67.40
40738;DHT22;54759;48.094;-1.628;2023-04-03T00:41:42;20.50;67.70
40738;DHT22;54759;48.094;-1.628;2023-04-03T00:48:15;20.30;67.40
40738;DHT22;54759;48.094;-1.628;2023-04-03T00:51:20;20.40;67.70
40738;DHT22;54759;48.094;-1.628;2023-04-03T00:54:24;20.40;67.70
40738;DHT22;54759;48.094;-1.628;2023-04-03T00:57:28;20.50;67.80
40738;DHT22;54759;48.094;-1.628;2023-04-03T01:00:31;20.20;67.50
40738;DHT22;54759;48.094;-1.628;2023-04-03T01:03:37;20.40;67.40
40738;DHT22;54759;48.094;-1.628;2023-04-03T01:06:39;20.40;67.30
40738;DHT22;54759;48.094;-1.628;2023-04-03T01:09:43;20.40;67.30
40738;DHT22;54759;48.094;-1.628;2023-04-03T01:12:49;20.30;66.80
40738;DHT22;54759;48.094;-1.628;2023-04-03T01:15:51;20.30;67.00
40738;DHT22;54759;48.094;-1.628;2023-04-03T01:18:56;20.20;67.20
40738;DHT22;54759;48.094;-1.628;2023-04-03T01:22:10;20.20;67.10
40738;DHT22;54759;48.094;-1.628;2023-04-03T01:25:15;20.20;67.10
40738;DHT22;54759;48.094;-1.628;2023-04-03T01:28:18;20.20;67.20
40738;DHT22;54759;48.094;-1.628;2023-04-03T01:31:24;20.10;67.90
40738;DHT22;54759;48.094;-1.628;2023-04-03T01:34:29;20.10;67.40
40738;DHT22;54759;48.094;-1.628;2023-04-03T01:37:33;20.20;67.90
40738;DHT22;54759;48.094;-1.628;2023-04-03T01:40:38;20.50;64.40
40738;DHT22;54759;48.094;-1.628;2023-04-03T01:43:39;20.10;67.90
40738;DHT22;54759;48.094;-1.628;2023-04-03T01:46:41;20.00;67.80
40738;DHT22;54759;48.094;-1.628;2023-04-03T01:49:44;19.80;67.40
40738;DHT22;54759;48.094;-1.628;2023-04-03T01:55:48;20.10;63.20
40738;DHT22;54759;48.094;-1.628;2023-04-03T01:58:50;20.20;67.50
40738;DHT22;54759;48.094;-1.628;2023-04-03T02:01:52;20.00;67.30
40738;DHT22;54759;48.094;-1.628;2023-04-03T02:04:54;20.10;67.60
40738;DHT22;54759;48.094;-1.628;2023-04-03T02:07:56;20.10;68.10
40738;DHT22;54759;48.094;-1.628;2023-04-03T02:10:57;20.00;67.40
40738;DHT22;54759;48.094;-1.628;2023-04-03T02:13:58;20.50;68.30
40738;DHT22;54759;48.094;-1.628;2023-04-03T02:17:00;20.00;67.70
40738;DHT22;54759;48.094;-1.628;2023-04-03T02:20:03;20.10;68.10
40738;DHT22;54759;48.094;-1.628;2023-04-03T02:23:05;20.10;68.10
40738;DHT22;54759;48.094;-1.628;2023-04-03T02:26:08;20.10;67.90
40738;DHT22;54759;48.094;-1.628;2023-04-03T02:29:10;19.80;67.70
40738;DHT22;54759;48.094;-1.628;2023-04-03T02:32:11;20.10;68.00
40738;DHT22;54759;48.094;-1.628;2023-04-03T02:35:15;20.00;68.10
40738;DHT22;54759;48.094;-1.628;2023-04-03T02:38:20;20.10;68.10
40738;DHT22;54759;48.094;-1.628;2023-04-03T02:41:22;20.10;68.20
40738;DHT22;54759;48.094;-1.628;2023-04-03T02:44:26;20.00;68.00
40738;DHT22;54759;48.094;-1.628;2023-04-03T02:47:30;20.10;67.90
40738;DHT22;54759;48.094;-1.628;2023-04-03T02:50:33;20.00;68.10
40738;DHT22;54759;48.094;-1.628;2023-04-03T02:53:37;20.60;68.10
40738;DHT22;54759;48.094;-1.628;2023-04-03T02:56:45;20.00;67.80
40738;DHT22;54759;48.094;-1.628;2023-04-03T02:59:46;20.00;67.60
40738;DHT22;54759;48.094;-1.628;2023-04-03T03:02:48;20.10;67.70
40738;DHT22;54759;48.094;-1.628;2023-04-03T03:05:50;20.10;67.80
40738;DHT22;54759;48.094;-1.628;2023-04-03T03:09:02;20.00;67.40
40738;DHT22;54759;48.094;-1.628;2023-04-03T03:12:04;20.10;55.60
40738;DHT22;54759;48.094;-1.628;2023-04-03T03:15:07;20.00;52.40
40738;DHT22;54759;48.094;-1.628;2023-04-03T03:18:11;20.00;55.10
40738;DHT22;54759;48.094;-1.628;2023-04-03T03:21:16;20.00;64.70
40738;DHT22;54759;48.094;-1.628;2023-04-03T03:24:18;19.90;71.10
40738;DHT22;54759;48.094;-1.628;2023-04-03T03:27:21;20.10;70.70
40738;DHT22;54759;48.094;-1.628;2023-04-03T03:30:25;20.20;70.30
40738;DHT22;54759;48.094;-1.628;2023-04-03T03:33:27;20.20;70.00
40738;DHT22;54759;48.094;-1.628;2023-04-03T03:36:29;19.90;51.00
40738;DHT22;54759;48.094;-1.628;2023-04-03T03:45:36;19.80;69.10
40738;DHT22;54759;48.094;-1.628;2023-04-03T03:48:38;20.00;69.00
40738;DHT22;54759;48.094;-1.628;2023-04-03T03:51:40;20.00;69.20
40738;DHT22;54759;48.094;-1.628;2023-04-03T03:54:43;20.10;69.10
40738;DHT22;54759;48.094;-1.628;2023-04-03T03:57:45;19.90;68.50
40738;DHT22;54759;48.094;-1.628;2023-04-03T04:00:47;20.20;68.70
40738;DHT22;54759;48.094;-1.628;2023-04-03T04:03:48;20.00;49.80
40738;DHT22;54759;48.094;-1.628;2023-04-03T04:06:55;20.20;69.00
40738;DHT22;54759;48.094;-1.628;2023-04-03T04:09:57;20.00;68.90
40738;DHT22;54759;48.094;-1.628;2023-04-03T04:13:00;19.80;68.60
40738;DHT22;54759;48.094;-1.628;2023-04-03T04:16:03;20.10;68.70
40738;DHT22;54759;48.094;-1.628;2023-04-03T04:19:06;20.10;68.80
40738;DHT22;54759;48.094;-1.628;2023-04-03T04:22:11;20.20;68.50
40738;DHT22;54759;48.094;-1.628;2023-04-03T04:25:13;20.10;68.40
40738;DHT22;54759;48.094;-1.628;2023-04-03T04:28:15;20.10;68.30
40738;DHT22;54759;48.094;-1.628;2023-04-03T04:31:17;20.20;68.30
40738;DHT22;54759;48.094;-1.628;2023-04-03T04:37:22;20.10;51.20
40738;DHT22;54759;48.094;-1.628;2023-04-03T04:40:24;19.90;68.20
40738;DHT22;54759;48.094;-1.628;2023-04-03T04:43:26;20.20;66.60
40738;DHT22;54759;48.094;-1.628;2023-04-03T04:46:32;20.00;67.90
40738;DHT22;54759;48.094;-1.628;2023-04-03T04:52:37;20.20;68.00
40738;DHT22;54759;48.094;-1.628;2023-04-03T05:01:45;20.00;48.60
40738;DHT22;54759;48.094;-1.628;2023-04-03T05:04:51;20.00;68.10
40738;DHT22;54759;48.094;-1.628;2023-04-03T05:07:58;20.10;68.00
40738;DHT22;54759;48.094;-1.628;2023-04-03T05:11:01;19.90;67.90
40738;DHT22;54759;48.094;-1.628;2023-04-03T05:14:04;19.90;68.20
40738;DHT22;54759;48.094;-1.628;2023-04-03T05:17:09;20.10;68.20
40738;DHT22;54759;48.094;-1.628;2023-04-03T05:20:14;19.90;68.00
40738;DHT22;54759;48.094;-1.628;2023-04-03T05:23:19;20.10;68.20
40738;DHT22;54759;48.094;-1.628;2023-04-03T05:26:24;20.00;68.30
40738;DHT22;54759;48.094;-1.628;2023-04-03T05:29:27;19.90;67.80
40738;DHT22;54759;48.094;-1.628;2023-04-03T05:32:29;20.00;67.90
40738;DHT22;54759;48.094;-1.628;2023-04-03T05:36:01;19.90;67.70
40738;DHT22;54759;48.094;-1.628;2023-04-03T05:39:03;19.80;68.00
40738;DHT22;54759;48.094;-1.628;2023-04-03T05:42:06;20.00;67.80
40738;DHT22;54759;48.094;-1.628;2023-04-03T05:45:09;20.00;68.10
40738;DHT22;54759;48.094;-1.628;2023-04-03T05:48:10;19.70;68.20
40738;DHT22;54759;48.094;-1.628;2023-04-03T05:51:15;19.90;67.70
40738;DHT22;54759;48.094;-1.628;2023-04-03T05:54:23;19.80;67.80
40738;DHT22;54759;48.094;-1.628;2023-04-03T06:00:30;20.10;67.80
40738;DHT22;54759;48.094;-1.628;2023-04-03T06:03:36;20.20;55.10
40738;DHT22;54759;48.094;-1.628;2023-04-03T06:06:49;19.90;67.30
40738;DHT22;54759;48.094;-1.628;2023-04-03T06:09:52;19.90;67.30
40738;DHT22;54759;48.094;-1.628;2023-04-03T06:12:54;19.90;67.30
40738;DHT22;54759;48.094;-1.628;2023-04-03T06:15:57;19.80;67.50
40738;DHT22;54759;48.094;-1.628;2023-04-03T06:18:59;19.80;66.80
40738;DHT22;54759;48.094;-1.628;2023-04-03T06:22:00;19.80;48.20
40738;DHT22;54759;48.094;-1.628;2023-04-03T06:25:03;19.90;67.10
40738;DHT22;54759;48.094;-1.628;2023-04-03T06:28:06;20.20;45.60
40738;DHT22;54759;48.094;-1.628;2023-04-03T06:31:10;20.10;67.00
40738;DHT22;54759;48.094;-1.628;2023-04-03T06:34:12;20.20;66.90
40738;DHT22;54759;48.094;-1.628;2023-04-03T06:37:15;20.10;60.90
40738;DHT22;54759;48.094;-1.628;2023-04-03T06:40:21;20.30;66.90
40738;DHT22;54759;48.094;-1.628;2023-04-03T06:46:26;20.40;66.80
40738;DHT22;54759;48.094;-1.628;2023-04-03T06:49:28;20.10;66.60
40738;DHT22;54759;48.094;-1.628;2023-04-03T06:52:29;20.50;67.30
40738;DHT22;54759;48.094;-1.628;2023-04-03T06:55:32;20.50;47.70
40738;DHT22;54759;48.094;-1.628;2023-04-03T06:58:36;20.30;66.90
40738;DHT22;54759;48.094;-1.628;2023-04-03T07:01:38;20.50;67.20
40738;DHT22;54759;48.094;-1.628;2023-04-03T07:04:40;20.10;48.10
40738;DHT22;54759;48.094;-1.628;2023-04-03T07:07:41;20.60;43.50
40738;DHT22;54759;48.094;-1.628;2023-04-03T07:10:43;20.10;43.50
40738;DHT22;54759;48.094;-1.628;2023-04-03T07:13:45;20.20;42.70
40738;DHT22;54759;48.094;-1.628;2023-04-03T07:16:46;19.90;42.60
40738;DHT22;54759;48.094;-1.628;2023-04-03T07:19:48;20.00;43.40
40738;DHT22;54759;48.094;-1.628;2023-04-03T07:22:49;19.90;43.30
40738;DHT22;54759;48.094;-1.628;2023-04-03T07:25:52;20.80;44.10
40738;DHT22;54759;48.094;-1.628;2023-04-03T07:28:54;20.20;43.30
40738;DHT22;54759;48.094;-1.628;2023-04-03T07:31:55;20.30;43.60
40738;DHT22;54759;48.094;-1.628;2023-04-03T07:34:57;20.40;43.30
40738;DHT22;54759;48.094;-1.628;2023-04-03T07:38:00;20.60;43.60
40738;DHT22;54759;48.094;-1.628;2023-04-03T07:41:03;20.10;43.40
40738;DHT22;54759;48.094;-1.628;2023-04-03T07:44:05;20.20;43.60
40738;DHT22;54759;48.094;-1.628;2023-04-03T07:47:07;20.30;43.70
40738;DHT22;54759;48.094;-1.628;2023-04-03T07:50:08;20.20;62.50
40738;DHT22;54759;48.094;-1.628;2023-04-03T07:53:10;20.50;62.70
40738;DHT22;54759;48.094;-1.628;2023-04-03T07:56:13;20.30;62.50
40738;DHT22;54759;48.094;-1.628;2023-04-03T07:59:14;20.80;44.40
40738;DHT22;54759;48.094;-1.628;2023-04-03T08:02:17;20.50;44.30
40738;DHT22;54759;48.094;-1.628;2023-04-03T08:05:23;20.80;44.10
40738;DHT22;54759;48.094;-1.628;2023-04-03T08:08:25;20.60;62.70
40738;DHT22;54759;48.094;-1.628;2023-04-03T08:11:27;20.80;62.80
40738;DHT22;54759;48.094;-1.628;2023-04-03T08:14:32;20.70;62.40
40738;DHT22;54759;48.094;-1.628;2023-04-03T08:17:35;20.90;62.60
40738;DHT22;54759;48.094;-1.628;2023-04-03T08:20:38;20.80;42.40
40738;DHT22;54759;48.094;-1.628;2023-04-03T08:23:40;20.40;42.80
40738;DHT22;54759;48.094;-1.628;2023-04-03T08:26:44;20.70;62.40
40738;DHT22;54759;48.094;-1.628;2023-04-03T08:29:46;20.60;62.60
40738;DHT22;54759;48.094;-1.628;2023-04-03T08:32:47;20.90;62.50
40738;DHT22;54759;48.094;-1.628;2023-04-03T08:35:49;20.70;62.20
40738;DHT22;54759;48.094;-1.628;2023-04-03T08:38:50;20.90;44.20
40738;DHT22;54759;48.094;-1.628;2023-04-03T08:41:55;21.10;62.50
40738;DHT22;54759;48.094;-1.628;2023-04-03T08:45:01;21.10;43.90
40738;DHT22;54759;48.094;-1.628;2023-04-03T08:48:11;20.90;61.90
40738;DHT22;54759;48.094;-1.628;2023-04-03T08:51:15;20.60;43.20
40738;DHT22;54759;48.094;-1.628;2023-04-03T08:54:25;20.90;61.70
40738;DHT22;54759;48.094;-1.628;2023-04-03T08:57:30;21.10;61.90
40738;DHT22;54759;48.094;-1.628;2023-04-03T09:00:41;21.00;62.10
40738;DHT22;54759;48.094;-1.628;2023-04-03T09:03:45;21.00;63.20
40738;DHT22;54759;48.094;-1.628;2023-04-03T09:06:51;20.80;62.60
40738;DHT22;54759;48.094;-1.628;2023-04-03T09:09:54;21.00;62.60
40738;DHT22;54759;48.094;-1.628;2023-04-03T09:13:01;21.10;63.00
40738;DHT22;54759;48.094;-1.628;2023-04-03T09:16:20;20.90;63.00
40738;DHT22;54759;48.094;-1.628;2023-04-03T09:19:32;21.10;63.10
40738;DHT22;54759;48.094;-1.628;2023-04-03T09:22:39;21.10;43.40
40738;DHT22;54759;48.094;-1.628;2023-04-03T09:25:58;21.00;55.40
40738;DHT22;54759;48.094;-1.628;2023-04-03T09:29:05;21.10;58.00
40738;DHT22;54759;48.094;-1.628;2023-04-03T09:32:19;21.10;62.90
40738;DHT22;54759;48.094;-1.628;2023-04-03T09:35:24;21.20;62.80
40738;DHT22;54759;48.094;-1.628;2023-04-03T09:38:41;21.20;62.60
40738;DHT22;54759;48.094;-1.628;2023-04-03T09:41:56;21.10;62.50
40738;DHT22;54759;48.094;-1.628;2023-04-03T09:44:59;20.90;62.90
40738;DHT22;54759;48.094;-1.628;2023-04-03T09:48:06;21.20;63.20
40738;DHT22;54759;48.094;-1.628;2023-04-03T09:51:15;21.10;63.20
40738;DHT22;54759;48.094;-1.628;2023-04-03T09:54:33;21.20;43.50
40738;DHT22;54759;48.094;-1.628;2023-04-03T09:57:35;21.20;63.40
40738;DHT22;54759;48.094;-1.628;2023-04-03T10:00:38;21.00;63.30
40738;DHT22;54759;48.094;-1.628;2023-04-03T10:03:41;21.20;41.70
40738;DHT22;54759;48.094;-1.628;2023-04-03T10:06:49;21.00;63.30
40738;DHT22;54759;48.094;-1.628;2023-04-03T10:09:55;21.40;43.60
40738;DHT22;54759;48.094;-1.628;2023-04-03T10:13:04;20.90;63.10
40738;DHT22;54759;48.094;-1.628;2023-04-03T10:16:12;21.60;63.70
40738;DHT22;54759;48.094;-1.628;2023-04-03T10:19:32;21.30;63.60
40738;DHT22;54759;48.094;-1.628;2023-04-03T10:22:42;21.40;44.00
40738;DHT22;54759;48.094;-1.628;2023-04-03T10:25:57;21.10;63.20
40738;DHT22;54759;48.094;-1.628;2023-04-03T10:29:09;21.20;63.40
40738;DHT22;54759;48.094;-1.628;2023-04-03T10:32:26;21.50;54.30
40738;DHT22;54759;48.094;-1.628;2023-04-03T10:35:39;21.50;63.90
40738;DHT22;54759;48.094;-1.628;2023-04-03T10:38:48;21.20;43.70
40738;DHT22;54759;48.094;-1.628;2023-04-03T10:41:59;21.00;63.50
40738;DHT22;54759;48.094;-1.628;2023-04-03T10:45:21;20.90;63.40
40738;DHT22;54759;48.094;-1.628;2023-04-03T10:48:36;21.20;63.30
40738;DHT22;54759;48.094;-1.628;2023-04-03T10:51:46;20.90;63.50
40738;DHT22;54759;48.094;-1.628;2023-04-03T10:54:55;21.20;63.60
40738;DHT22;54759;48.094;-1.628;2023-04-03T10:57:59;21.50;50.80
40738;DHT22;54759;48.094;-1.628;2023-04-03T11:01:05;21.30;63.70
40738;DHT22;54759;48.094;-1.628;2023-04-03T11:04:10;21.30;43.70
40738;DHT22;54759;48.094;-1.628;2023-04-03T11:07:17;21.30;63.70
40738;DHT22;54759;48.094;-1.628;2023-04-03T11:10:23;21.10;63.50
40738;DHT22;54759;48.094;-1.628;2023-04-03T11:13:32;21.30;63.30
40738;DHT22;54759;48.094;-1.628;2023-04-03T11:16:38;21.00;63.00
40738;DHT22;54759;48.094;-1.628;2023-04-03T11:20:02;21.20;63.10
40738;DHT22;54759;48.094;-1.628;2023-04-03T11:23:13;21.30;63.30
40738;DHT22;54759;48.094;-1.628;2023-04-03T11:26:26;21.30;63.10
40738;DHT22;54759;48.094;-1.628;2023-04-03T11:29:34;21.30;43.00
40738;DHT22;54759;48.094;-1.628;2023-04-03T11:33:05;21.50;63.30
40738;DHT22;54759;48.094;-1.628;2023-04-03T11:36:18;21.50;53.30
40738;DHT22;54759;48.094;-1.628;2023-04-03T11:39:27;21.30;63.10
40738;DHT22;54759;48.094;-1.628;2023-04-03T11:42:33;21.50;63.00
40738;DHT22;54759;48.094;-1.628;2023-04-03T11:45:50;21.40;63.00
40738;DHT22;54759;48.094;-1.628;2023-04-03T11:48:52;21.50;41.40
40738;DHT22;54759;48.094;-1.628;2023-04-03T11:51:57;21.50;43.00
40738;DHT22;54759;48.094;-1.628;2023-04-03T11:54:58;21.40;63.00
40738;DHT22;54759;48.094;-1.628;2023-04-03T11:58:12;21.50;43.00
40738;DHT22;54759;48.094;-1.628;2023-04-03T12:01:43;21.50;43.10
40738;DHT22;54759;48.094;-1.628;2023-04-03T12:08:26;21.50;42.70
40738;DHT22;54759;48.094;-1.628;2023-04-03T12:11:30;21.30;62.70
40738;DHT22;54759;48.094;-1.628;2023-04-03T12:14:36;21.60;45.30
40738;DHT22;54759;48.094;-1.628;2023-04-03T12:17:40;21.70;54.80
40738;DHT22;54759;48.094;-1.628;2023-04-03T12:20:58;21.60;62.70
40738;DHT22;54759;48.094;-1.628;2023-04-03T12:24:15;21.70;63.00
40738;DHT22;54759;48.094;-1.628;2023-04-03T12:27:27;21.80;63.40
40738;DHT22;54759;48.094;-1.628;2023-04-03T12:30:30;21.60;63.40
40738;DHT22;54759;48.094;-1.628;2023-04-03T12:33:38;21.30;63.40
40738;DHT22;54759;48.094;-1.628;2023-04-03T12:36:54;21.60;43.60
40738;DHT22;54759;48.094;-1.628;2023-04-03T12:40:08;21.80;63.70
40738;DHT22;54759;48.094;-1.628;2023-04-03T12:43:24;21.70;43.90
40738;DHT22;54759;48.094;-1.628;2023-04-03T12:46:35;21.70;45.30
40738;DHT22;54759;48.094;-1.628;2023-04-03T12:49:39;21.70;64.40
40738;DHT22;54759;48.094;-1.628;2023-04-03T12:52:47;21.60;44.30
40738;DHT22;54759;48.094;-1.628;2023-04-03T12:55:54;21.70;64.50
40738;DHT22;54759;48.094;-1.628;2023-04-03T12:59:13;21.80;64.20
40738;DHT22;54759;48.094;-1.628;2023-04-03T13:02:21;21.80;64.30
40738;DHT22;54759;48.094;-1.628;2023-04-03T13:05:28;21.50;64.00
40738;DHT22;54759;48.094;-1.628;2023-04-03T13:08:30;21.40;63.70
40738;DHT22;54759;48.094;-1.628;2023-04-03T13:11:36;21.60;57.10
40738;DHT22;54759;48.094;-1.628;2023-04-03T13:17:42;22.00;58.50
40738;DHT22;54759;48.094;-1.628;2023-04-03T13:20:47;22.10;66.00
40738;DHT22;54759;48.094;-1.628;2023-04-03T13:23:52;21.70;53.00
40738;DHT22;54759;48.094;-1.628;2023-04-03T13:27:13;21.80;48.30
40738;DHT22;54759;48.094;-1.628;2023-04-03T13:30:21;22.20;68.90
40738;DHT22;54759;48.094;-1.628;2023-04-03T13:33:27;21.90;68.40
40738;DHT22;54759;48.094;-1.628;2023-04-03T13:39:35;22.20;45.00
40738;DHT22;54759;48.094;-1.628;2023-04-03T13:42:39;21.90;68.20
40738;DHT22;54759;48.094;-1.628;2023-04-03T13:45:54;21.90;53.10
40738;DHT22;54759;48.094;-1.628;2023-04-03T13:49:17;22.30;67.20
40738;DHT22;54759;48.094;-1.628;2023-04-03T13:52:24;21.30;44.90
40738;DHT22;54759;48.094;-1.628;2023-04-03T13:55:32;21.80;67.10
40738;DHT22;54759;48.094;-1.628;2023-04-03T13:58:36;21.80;68.50
40738;DHT22;54759;48.094;-1.628;2023-04-03T14:01:42;22.30;66.80
40738;DHT22;54759;48.094;-1.628;2023-04-03T14:04:49;22.10;67.10
40738;DHT22;54759;48.094;-1.628;2023-04-03T14:07:52;22.10;69.90
40738;DHT22;54759;48.094;-1.628;2023-04-03T14:14:43;22.10;68.30
40738;DHT22;54759;48.094;-1.628;2023-04-03T14:20:49;22.20;46.90
40738;DHT22;54759;48.094;-1.628;2023-04-03T14:23:50;22.10;68.40
40738;DHT22;54759;48.094;-1.628;2023-04-03T14:26:54;22.30;46.90
40738;DHT22;54759;48.094;-1.628;2023-04-03T14:29:58;22.30;68.50
40738;DHT22;54759;48.094;-1.628;2023-04-03T14:33:01;22.30;46.30
40738;DHT22;54759;48.094;-1.628;2023-04-03T14:36:12;22.30;68.90
40738;DHT22;54759;48.094;-1.628;2023-04-03T14:41:27;22.40;68.10
40738;DHT22;54759;48.094;-1.628;2023-04-03T14:44:28;22.50;68.90
40738;DHT22;54759;48.094;-1.628;2023-04-03T14:47:30;22.70;69.40
40738;DHT22;54759;48.094;-1.628;2023-04-03T14:53:35;22.50;68.50
40738;DHT22;54759;48.094;-1.628;2023-04-03T14:56:40;22.60;50.50
40738;DHT22;54759;48.094;-1.628;2023-04-03T14:59:43;22.50;49.70
40738;DHT22;54759;48.094;-1.628;2023-04-03T15:05:48;22.50;68.30
40738;DHT22;54759;48.094;-1.628;2023-04-03T15:08:50;22.90;68.40
40738;DHT22;54759;48.094;-1.628;2023-04-03T15:18:03;22.90;70.60
40738;DHT22;54759;48.094;-1.628;2023-04-03T15:21:05;22.30;70.90
40738;DHT22;54759;48.094;-1.628;2023-04-03T15:24:09;22.60;52.20
40738;DHT22;54759;48.094;-1.628;2023-04-03T15:27:11;22.40;53.20
40738;DHT22;54759;48.094;-1.628;2023-04-03T15:30:16;22.80;48.90
40738;DHT22;54759;48.094;-1.628;2023-04-03T15:33:21;22.70;53.60
40738;DHT22;54759;48.094;-1.628;2023-04-03T15:48:42;22.80;47.20
40738;DHT22;54759;48.094;-1.628;2023-04-03T15:57:47;23.00;67.20
40738;DHT22;54759;48.094;-1.628;2023-04-03T16:00:48;23.00;63.00
40738;DHT22;54759;48.094;-1.628;2023-04-03T16:03:50;22.40;52.00
40738;DHT22;54759;48.094;-1.628;2023-04-03T16:06:52;22.90;55.10
40738;DHT22;54759;48.094;-1.628;2023-04-03T16:09:53;22.70;50.20
40738;DHT22;54759;48.094;-1.628;2023-04-03T16:19:00;22.60;60.50
40738;DHT22;54759;48.094;-1.628;2023-04-03T16:22:01;22.90;47.60
40738;DHT22;54759;48.094;-1.628;2023-04-03T16:28:05;22.80;73.00
40738;DHT22;54759;48.094;-1.628;2023-04-03T16:34:15;22.70;70.50
40738;DHT22;54759;48.094;-1.628;2023-04-03T16:37:18;23.20;70.60
40738;DHT22;54759;48.094;-1.628;2023-04-03T16:40:20;23.10;70.50
40738;DHT22;54759;48.094;-1.628;2023-04-03T16:43:24;23.20;70.30
40738;DHT22;54759;48.094;-1.628;2023-04-03T16:46:25;22.90;69.80
40738;DHT22;54759;48.094;-1.628;2023-04-03T16:49:27;23.20;47.80
40738;DHT22;54759;48.094;-1.628;2023-04-03T16:52:33;22.70;69.30
40738;DHT22;54759;48.094;-1.628;2023-04-03T16:55:35;23.20;69.60
40738;DHT22;54759;48.094;-1.628;2023-04-03T16:58:36;23.10;69.20
40738;DHT22;54759;48.094;-1.628;2023-04-03T17:04:42;23.00;46.10
40738;DHT22;54759;48.094;-1.628;2023-04-03T17:13:51;23.00;68.20
40738;DHT22;54759;48.094;-1.628;2023-04-03T17:16:52;23.40;68.30
40738;DHT22;54759;48.094;-1.628;2023-04-03T17:19:56;23.00;67.90
40738;DHT22;54759;48.094;-1.628;2023-04-03T17:22:57;23.50;50.90
40738;DHT22;54759;48.094;-1.628;2023-04-03T17:25:59;22.80;44.50
40738;DHT22;54759;48.094;-1.628;2023-04-03T17:29:00;23.30;68.00
40738;DHT22;54759;48.094;-1.628;2023-04-03T17:32:02;23.50;68.40
40738;DHT22;54759;48.094;-1.628;2023-04-03T17:35:06;23.50;68.40
40738;DHT22;54759;48.094;-1.628;2023-04-03T17:38:11;23.60;68.30
40738;DHT22;54759;48.094;-1.628;2023-04-03T17:41:12;23.10;46.30
40738;DHT22;54759;48.094;-1.628;2023-04-03T17:44:15;23.20;67.90
40738;DHT22;54759;48.094;-1.628;2023-04-03T17:47:17;23.70;68.10
40738;DHT22;54759;48.094;-1.628;2023-04-03T17:50:21;23.50;67.90
40738;DHT22;54759;48.094;-1.628;2023-04-03T17:53:23;23.70;45.20
40738;DHT22;54759;48.094;-1.628;2023-04-03T17:56:27;23.60;67.80
40738;DHT22;54759;48.094;-1.628;2023-04-03T17:59:29;23.50;67.80
40738;DHT22;54759;48.094;-1.628;2023-04-03T18:02:30;23.60;67.60
40738;DHT22;54759;48.094;-1.628;2023-04-03T18:05:36;23.50;67.70
40738;DHT22;54759;48.094;-1.628;2023-04-03T18:08:40;23.50;67.80
40738;DHT22;54759;48.094;-1.628;2023-04-03T18:11:43;23.30;67.50
40738;DHT22;54759;48.094;-1.628;2023-04-03T18:14:50;23.40;67.70
40738;DHT22;54759;48.094;-1.628;2023-04-03T18:17:51;23.30;67.20
40738;DHT22;54759;48.094;-1.628;2023-04-03T18:20:57;23.50;58.90
40738;DHT22;54759;48.094;-1.628;2023-04-03T18:23:58;23.70;67.30
40738;DHT22;54759;48.094;-1.628;2023-04-03T18:27:02;23.20;67.00
40738;DHT22;54759;48.094;-1.628;2023-04-03T18:30:10;23.50;67.20
40738;DHT22;54759;48.094;-1.628;2023-04-03T18:33:16;23.30;67.00
40738;DHT22;54759;48.094;-1.628;2023-04-03T18:36:18;23.20;67.10
40738;DHT22;54759;48.094;-1.628;2023-04-03T18:39:20;23.30;67.00
40738;DHT22;54759;48.094;-1.628;2023-04-03T18:42:25;23.70;67.40
40738;DHT22;54759;48.094;-1.628;2023-04-03T18:45:27;23.70;67.40
40738;DHT22;54759;48.094;-1.628;2023-04-03T18:48:29;23.20;67.10
40738;DHT22;54759;48.094;-1.628;2023-04-03T18:51:35;23.40;41.20
40738;DHT22;54759;48.094;-1.628;2023-04-03T18:54:39;23.70;67.60
40738;DHT22;54759;48.094;-1.628;2023-04-03T19:00:47;23.40;67.80
40738;DHT22;54759;48.094;-1.628;2023-04-03T19:03:49;23.40;67.80
40738;DHT22;54759;48.094;-1.628;2023-04-03T19:06:51;23.30;67.80
40738;DHT22;54759;48.094;-1.628;2023-04-03T19:09:53;23.10;68.00
40738;DHT22;54759;48.094;-1.628;2023-04-03T19:12:55;23.10;67.90
40738;DHT22;54759;48.094;-1.628;2023-04-03T19:15:58;23.40;67.80
40738;DHT22;54759;48.094;-1.628;2023-04-03T19:19:01;23.30;68.40
40738;DHT22;54759;48.094;-1.628;2023-04-03T19:22:03;23.10;45.70
40738;DHT22;54759;48.094;-1.628;2023-04-03T19:25:08;23.20;68.40
40738;DHT22;54759;48.094;-1.628;2023-04-03T19:28:12;23.60;49.10
40738;DHT22;54759;48.094;-1.628;2023-04-03T19:31:17;23.00;69.30
40738;DHT22;54759;48.094;-1.628;2023-04-03T19:34:20;23.30;44.80
40738;DHT22;54759;48.094;-1.628;2023-04-03T19:37:23;23.40;49.80
40738;DHT22;54759;48.094;-1.628;2023-04-03T19:40:24;23.70;57.70
40738;DHT22;54759;48.094;-1.628;2023-04-03T19:43:28;23.50;61.70
40738;DHT22;54759;48.094;-1.628;2023-04-03T19:49:34;23.20;46.20
40738;DHT22;54759;48.094;-1.628;2023-04-03T19:52:37;22.90;68.80
40738;DHT22;54759;48.094;-1.628;2023-04-03T19:55:38;23.30;58.00
40738;DHT22;54759;48.094;-1.628;2023-04-03T19:58:40;22.70;68.50
40738;DHT22;54759;48.094;-1.628;2023-04-03T20:04:46;23.20;69.30
40738;DHT22;54759;48.094;-1.628;2023-04-03T20:07:49;22.90;68.90
40738;DHT22;54759;48.094;-1.628;2023-04-03T20:10:50;23.00;69.20
40738;DHT22;54759;48.094;-1.628;2023-04-03T20:13:52;22.90;46.50
40738;DHT22;54759;48.094;-1.628;2023-04-03T20:19:59;22.90;44.80
40738;DHT22;54759;48.094;-1.628;2023-04-03T20:23:02;22.20;47.10
40738;DHT22;54759;48.094;-1.628;2023-04-03T20:26:05;22.70;52.70
40738;DHT22;54759;48.094;-1.628;2023-04-03T20:29:16;22.90;69.60
40738;DHT22;54759;48.094;-1.628;2023-04-03T20:32:17;22.50;47.30
40738;DHT22;54759;48.094;-1.628;2023-04-03T20:35:19;22.70;69.80
40738;DHT22;54759;48.094;-1.628;2023-04-03T20:38:22;22.80;46.90
40738;DHT22;54759;48.094;-1.628;2023-04-03T20:41:24;22.50;63.10
40738;DHT22;54759;48.094;-1.628;2023-04-03T20:47:27;22.90;70.50
40738;DHT22;54759;48.094;-1.628;2023-04-03T20:50:32;22.90;71.40
40738;DHT22;54759;48.094;-1.628;2023-04-03T20:53:35;22.40;71.90
40738;DHT22;54759;48.094;-1.628;2023-04-03T20:56:38;22.30;71.40
40738;DHT22;54759;48.094;-1.628;2023-04-03T20:59:39;22.60;71.10
40738;DHT22;54759;48.094;-1.628;2023-04-03T21:02:42;22.60;56.20
40738;DHT22;54759;48.094;-1.628;2023-04-03T21:05:43;22.30;70.30